Edenville, MI (48620)

4:21 PM EDT on April 27, 2017 (GMT -0400)
Meridian Public Schools | | Change Station

Elev 656 ft 43.71 °N, 84.37 °W | Updated 21 seconds ago

Mostly Cloudy
Mostly Cloudy
56.0 °F
Feels Like 56.0 °F
N
9.0
Wind Variable Wind from WSW
Gusts 23.0 mph

Today
High -- | Low -- °F
--% Chance of Precip.
Yesterday
High -- | Low -- °F
Precip. -- in
Pressure 29.53 in
Visibility 10.0 miles
Clouds Mostly Cloudy 3700 ft
Mostly Cloudy 4200 ft
Dew Point 41 °F
Humidity 59%
Rainfall 0.04 in
Snow Depth Not available.
6:35 AM 8:35 PM
Waxing Crescent, 3% visible
METAR KIKW 272013Z AUTO 24019G23KT 10SM BKN037 BKN042 14/05 A2953 RMK AO2 T01430046
Pressure 29.53 in
Visibility 10.0 miles
Clouds Mostly Cloudy 3700 ft
Mostly Cloudy 4200 ft
Dew Point 41 °F
Humidity 59%
Rainfall 0.04 in
Snow Depth Not available.
6:35 AM 8:35 PM
Waxing Crescent, 3% visible
METAR KIKW 272013Z AUTO 24019G23KT 10SM BKN037 BKN042 14/05 A2953 RMK AO2 T01430046

Get Severe Weather Alerts

Thanks for signing up!

Be on the lookout for a verification email in your inbox.

You'll start receiving the daily forecast at 8 AM.

×

10-Day Weather Forecast

Almanac

Astronomy

Apr. 27, 2017 Rise Set
Actual Time
Civil Twilight
Nautical Twilight
Astronomical Twilight
Moon
Length of Visible Light
Length of Day
Tomorrow will be .
, % of the Moon is Illuminated

Today's Extremes

State Highs State Lows

Community

WunderPhotos

WunderBlog® & News

Nearby

Air Quality

  Air Quality AQ Index Pollutant
Not available.

Snow Depth

Station Depth Elevation

Earthquake Activity

City Distance Mag. Time & Date
Minimum magnitude displayed is 2.5.

Coastal Water Temperatures

Place Temperature

Stations

Nearby Weather Stations

Station Location Temp. Windchill Dew Point Humidity Wind Precip. Elev Updated Type
                   

Watches & Warnings

There are currently no watches in effect.